Time;durP1;ratioP1;P1;durP2;ratioP2;P2;SDS_P1;SDS_P2;PMS_P1;PMS_P2;Temp;Humidity;BMP_temperature;BMP_pressure;BME280_temperature;BME280_humidity;BME280_pressure;Samples;Min_cycle;Max_cycle;Signal;HPM_P1;HPM_P2
2023/01/05 00:01:33;;;;;;;0.77;0.30;;;;;;;14.59;78.57;100133.91;5011477;28;20018;-59
2023/01/05 00:03:59;;;;;;;1.10;0.40;;;;;;;14.67;78.74;100133.50;5011993;28;20508;-60
2023/01/05 00:06:26;;;;;;;1.20;0.30;;;;;;;14.61;79.94;100126.41;5012400;28;20109;-59
2023/01/05 00:08:52;;;;;;;0.85;0.30;;;;;;;14.52;80.75;100118.75;5011266;28;20030;-61
2023/01/05 00:22:55;;;;;;;2.78;0.60;;;;;;;14.54;80.42;100118.50;5002519;28;20084;-70
2023/01/05 00:25:29;;;;;;;2.03;0.50;;;;;;;14.40;81.43;100115.34;5011317;28;20113;-60
2023/01/05 00:27:57;;;;;;;1.27;0.60;;;;;;;14.40;81.61;100106.44;5010611;28;20021;-55
2023/01/05 00:30:27;;;;;;;1.73;0.50;;;;;;;14.41;80.96;100116.97;5011584;28;20026;-64
2023/01/05 00:32:54;;;;;;;1.23;0.40;;;;;;;14.31;82.72;100127.59;5011693;28;20068;-50
2023/01/05 00:35:21;;;;;;;4.07;0.80;;;;;;;14.30;83.24;100142.13;5011453;28;20092;-57
2023/01/05 00:37:48;;;;;;;4.15;0.70;;;;;;;14.14;84.99;100145.63;5010380;28;20025;-56
2023/01/05 00:40:18;;;;;;;3.35;0.85;;;;;;;14.00;86.21;100159.44;5012292;28;20028;-56
2023/01/05 00:42:46;;;;;;;5.32;0.95;;;;;;;13.99;87.02;100165.88;5007230;28;20387;-59
2023/01/05 00:45:15;;;;;;;3.97;1.02;;;;;;;13.85;88.54;100172.63;4992710;28;20113;-57
2023/01/05 00:47:42;;;;;;;8.52;1.35;;;;;;;13.74;89.57;100182.41;4998997;28;20021;-49
2023/01/05 00:50:12;;;;;;;6.60;1.50;;;;;;;13.56;91.21;100171.88;5002995;28;20470;-58
2023/01/05 00:52:38;;;;;;;7.68;1.75;;;;;;;13.47;92.35;100176.00;5005997;28;20471;-57
2023/01/05 00:55:04;;;;;;;10.23;1.83;;;;;;;13.40;93.63;100186.91;5008840;28;20158;-59
2023/01/05 00:57:31;;;;;;;8.50;1.50;;;;;;;13.45;94.20;100194.25;4996457;28;20033;-60
2023/01/05 00:59:57;;;;;;;10.73;2.38;;;;;;;13.39;94.75;100196.03;5010556;28;20042;-59
2023/01/05 01:02:23;;;;;;;7.15;1.08;;;;;;;13.25;95.92;100202.72;5009507;28;20022;-59
2023/01/05 01:04:49;;;;;;;8.98;1.45;;;;;;;13.20;95.96;100165.78;4995026;28;20057;-68
2023/01/05 01:07:16;;;;;;;7.05;1.70;;;;;;;13.20;95.91;100191.84;5008260;28;20038;-51
2023/01/05 01:09:42;;;;;;;4.78;1.63;;;;;;;13.24;95.83;100203.78;5010709;28;20026;-59
2023/01/05 01:12:08;;;;;;;7.40;1.27;;;;;;;13.22;95.57;100199.72;5011108;28;20034;-61
2023/01/05 01:14:35;;;;;;;2.38;0.95;;;;;;;13.23;95.65;100202.16;5004985;28;20038;-58
2023/01/05 01:17:01;;;;;;;8.80;1.40;;;;;;;13.12;96.30;100200.31;4996005;28;20105;-67
2023/01/05 01:19:27;;;;;;;4.00;1.15;;;;;;;13.12;96.68;100197.63;5011474;28;20030;-60
2023/01/05 01:21:54;;;;;;;6.65;1.40;;;;;;;13.10;97.35;100199.72;5011973;28;20105;-55
2023/01/05 01:24:26;;;;;;;9.65;2.00;;;;;;;13.07;97.99;100194.81;5011466;28;20044;-55
2023/01/05 01:26:53;;;;;;;4.30;1.00;;;;;;;13.06;97.67;100191.31;5012439;28;20022;-57
2023/01/05 01:29:21;;;;;;;4.07;0.95;;;;;;;12.99;98.12;100162.94;5011455;28;20030;-56
2023/01/05 01:31:49;;;;;;;3.30;0.80;;;;;;;13.03;97.73;100169.47;5011584;28;20120;-58
2023/01/05 01:34:15;;;;;;;7.15;1.20;;;;;;;13.07;97.88;100138.41;5011510;28;20033;-58
2023/01/05 01:36:42;;;;;;;4.10;0.90;;;;;;;13.05;96.39;100110.97;5011052;28;20367;-57
2023/01/05 01:39:09;;;;;;;8.95;1.10;;;;;;;13.00;96.47;100106.31;5013529;28;20038;-50
2023/01/05 01:41:35;;;;;;;3.35;0.60;;;;;;;13.01;96.27;100074.88;5015201;28;20026;-56
2023/01/05 01:44:02;;;;;;;4.07;0.50;;;;;;;13.09;96.49;100048.44;4999363;28;20036;-57
2023/01/05 01:46:28;;;;;;;3.58;1.05;;;;;;;13.07;95.78;100030.94;4995205;28;20513;-57
2023/01/05 01:49:01;;;;;;;3.08;0.60;;;;;;;13.11;95.50;100065.16;5003531;28;20514;-57
2023/01/05 01:51:31;;;;;;;1.15;0.52;;;;;;;13.12;95.27;100085.59;4995208;28;20080;-58
2023/01/05 01:54:04;;;;;;;2.88;0.57;;;;;;;13.14;95.56;100101.44;5010998;28;20080;-52
2023/01/05 01:56:46;;;;;;;2.00;0.55;;;;;;;13.16;96.58;100136.97;5014907;28;20144;-53
2023/01/05 01:59:13;;;;;;;4.20;0.80;;;;;;;13.15;96.37;100152.25;5012146;28;20045;-59
2023/01/05 02:01:40;;;;;;;3.83;1.00;;;;;;;13.14;96.84;100190.13;5001742;28;20034;-62
2023/01/05 02:04:08;;;;;;;5.95;0.90;;;;;;;13.04;97.78;100146.94;5011510;28;20120;-57
2023/01/05 02:06:35;;;;;;;8.07;1.25;;;;;;;13.03;98.42;100161.41;5013913;28;20471;-54
2023/01/05 02:09:02;;;;;;;5.50;0.93;;;;;;;13.04;98.61;100152.31;5013705;28;20041;-54
2023/01/05 02:12:04;;;;;;;4.95;0.93;;;;;;;12.88;99.68;100074.13;5014284;28;20033;-52
2023/01/05 02:14:48;;;;;;;5.25;0.98;;;;;;;12.83;99.61;99971.16;5013366;28;20153;-52
2023/01/05 02:17:52;;;;;;;4.43;1.08;;;;;;;12.79;99.99;99976.19;5013983;28;20061;-55
2023/01/05 02:20:24;;;;;;;4.72;1.00;;;;;;;12.87;99.45;99988.41;4983413;28;20132;-58
2023/01/05 02:23:31;;;;;;;3.83;1.00;;;;;;;12.84;99.74;99962.06;5013702;28;20030;-62
2023/01/05 02:26:00;;;;;;;0.65;0.38;;;;;;;12.85;99.55;99964.47;4972914;28;20451;-62
2023/01/05 02:28:51;;;;;;;1.48;0.50;;;;;;;12.93;98.52;99977.50;5017193;28;20038;-62
2023/01/05 02:32:15;;;;;;;1.52;0.40;;;;;;;13.00;97.47;99947.81;5012878;28;20092;-58
2023/01/05 02:35:02;;;;;;;0.65;0.43;;;;;;;13.00;96.62;99920.16;4998928;28;20041;-57
2023/01/05 02:37:41;;;;;;;0.65;0.40;;;;;;;13.04;96.52;99868.34;5016332;28;20026;-56
2023/01/05 02:40:19;;;;;;;0.70;0.20;;;;;;;13.03;95.78;99817.56;5025536;28;20026;-54
2023/01/05 02:42:50;;;;;;;0.65;0.20;;;;;;;13.04;94.09;99878.28;5010908;28;20048;-52
2023/01/05 02:45:20;;;;;;;0.35;0.20;;;;;;;13.06;93.27;99858.19;5013966;28;20139;-57
2023/01/05 02:47:46;;;;;;;0.30;0.10;;;;;;;13.16;90.94;99889.78;5013977;28;20059;-59
2023/01/05 02:50:21;;;;;;;0.82;0.30;;;;;;;13.27;89.22;99890.75;5013334;28;20033;-57
2023/01/05 02:52:55;;;;;;;0.30;0.20;;;;;;;13.35;87.72;99949.47;5014301;28;20053;-56
2023/01/05 02:55:31;;;;;;;1.20;0.20;;;;;;;13.33;88.34;99941.66;5014270;28;20026;-56
2023/01/05 02:58:04;;;;;;;0.20;0.20;;;;;;;13.31;88.19;99948.31;5014149;28;20501;-56
2023/01/05 03:00:49;;;;;;;0.32;0.30;;;;;;;13.42;87.33;99950.09;5013947;28;20030;-53
2023/01/05 03:03:31;;;;;;;0.63;0.20;;;;;;;13.45;86.86;99950.44;5013707;28;20042;-53
2023/01/05 03:06:09;;;;;;;0.15;0.13;;;;;;;13.42;87.11;99958.16;5013973;28;20030;-52
2023/01/05 03:08:41;;;;;;;1.27;0.20;;;;;;;13.45;87.01;99971.13;5013843;28;20465;-52
2023/01/05 03:14:16;;;;;;;0.30;0.30;;;;;;;13.39;86.92;99994.44;5013909;28;20080;-54
2023/01/05 03:16:47;;;;;;;0.50;0.20;;;;;;;13.49;86.54;100001.81;5013806;28;20466;-52
2023/01/05 03:19:35;;;;;;;1.60;0.20;;;;;;;13.47;85.96;99996.69;5013550;28;20072;-52
2023/01/05 03:36:45;;;;;;;0.50;0.20;;;;;;;13.60;85.67;100025.13;4982931;28;20096;-49
2023/01/05 03:39:14;;;;;;;0.47;0.20;;;;;;;13.66;85.16;100032.22;5012973;28;20363;-52
2023/01/05 03:41:41;;;;;;;0.63;0.20;;;;;;;13.63;85.20;100034.56;5013418;28;20029;-52
2023/01/05 03:44:08;;;;;;;0.55;0.30;;;;;;;13.67;84.98;100043.78;5013141;28;20510;-52
2023/01/05 03:46:34;;;;;;;0.20;0.20;;;;;;;13.71;84.46;100040.38;5013340;28;20033;-52
2023/01/05 03:49:00;;;;;;;0.68;0.20;;;;;;;13.74;84.43;100039.84;5012870;28;20029;-52
2023/01/05 03:51:27;;;;;;;0.77;0.30;;;;;;;13.72;85.13;100049.25;5013251;28;20029;-50
2023/01/05 03:53:53;;;;;;;1.20;0.25;;;;;;;13.64;85.37;100052.34;5013180;28;20022;-53
2023/01/05 03:56:19;;;;;;;0.82;0.40;;;;;;;13.64;85.33;100071.16;5012657;28;20042;-52
2023/01/05 03:58:45;;;;;;;0.77;0.30;;;;;;;13.62;86.09;100065.22;5012792;28;20026;-51
2023/01/05 04:01:12;;;;;;;0.47;0.30;;;;;;;13.65;85.87;100059.34;5013027;28;20060;-52
2023/01/05 04:03:39;;;;;;;0.60;0.40;;;;;;;13.59;85.97;100068.38;5012924;28;20457;-52
2023/01/05 04:06:05;;;;;;;0.80;0.30;;;;;;;13.62;86.09;100063.34;5012541;28;20018;-52
2023/01/05 04:08:32;;;;;;;0.60;0.40;;;;;;;13.65;86.36;100065.53;5012067;28;20033;-51
2023/01/05 04:11:10;;;;;;;0.52;0.20;;;;;;;13.71;85.31;100067.25;5012408;28;20022;-51
2023/01/05 04:13:37;;;;;;;0.55;0.25;;;;;;;13.64;86.16;100088.09;4994675;28;20101;-52
2023/01/05 04:16:03;;;;;;;0.82;0.30;;;;;;;13.73;86.24;100073.19;4998733;28;20050;-52
2023/01/05 04:18:29;;;;;;;0.90;0.30;;;;;;;13.70;86.59;100068.28;5012359;28;20040;-53
2023/01/05 04:20:56;;;;;;;0.65;0.30;;;;;;;13.60;87.42;100083.44;5012627;28;20041;-53
2023/01/05 04:23:22;;;;;;;1.17;0.20;;;;;;;13.61;87.95;100087.78;5012646;28;20030;-53
2023/01/05 04:25:48;;;;;;;1.45;0.35;;;;;;;13.55;88.18;100080.69;5012742;28;20014;-53
2023/01/05 04:28:14;;;;;;;0.47;0.20;;;;;;;13.57;87.84;100092.84;5012223;28;20034;-52
2023/01/05 04:30:44;;;;;;;1.58;0.50;;;;;;;13.52;88.13;100098.13;5011938;28;20046;-50
2023/01/05 04:33:11;;;;;;;0.90;0.20;;;;;;;13.63;87.83;100101.81;5012426;28;20022;-53
2023/01/05 04:35:37;;;;;;;1.10;0.20;;;;;;;13.56;87.91;100119.97;5012309;28;20385;-50
2023/01/05 04:38:03;;;;;;;1.48;0.38;;;;;;;13.62;87.53;100119.81;5012246;28;20030;-52
2023/01/05 04:40:30;;;;;;;0.75;0.30;;;;;;;13.56;87.55;100110.03;5012096;28;20040;-51
2023/01/05 04:42:56;;;;;;;1.33;0.40;;;;;;;13.56;87.99;100104.66;5012258;28;20036;-51
2023/01/05 04:45:22;;;;;;;1.73;0.40;;;;;;;13.56;87.68;100110.03;5011234;28;20393;-52
2023/01/05 04:47:50;;;;;;;0.98;0.20;;;;;;;13.50;88.53;100116.38;5011952;28;20030;-53
2023/01/05 04:50:16;;;;;;;0.57;0.40;;;;;;;13.53;89.02;100123.13;5011929;28;20041;-52
2023/01/05 04:52:43;;;;;;;0.50;0.30;;;;;;;13.61;88.25;100125.44;5012020;28;20025;-53
2023/01/05 04:55:09;;;;;;;0.85;0.30;;;;;;;13.53;88.84;100125.81;5011442;28;20030;-53
2023/01/05 04:57:35;;;;;;;1.42;0.30;;;;;;;13.48;88.91;100113.91;5011503;28;20029;-53
2023/01/05 05:00:02;;;;;;;0.30;0.20;;;;;;;13.60;88.90;100123.78;4992397;28;20080;-51
2023/01/05 05:02:29;;;;;;;0.82;0.40;;;;;;;13.42;89.67;100128.34;4992608;28;20034;-52
2023/01/05 05:04:55;;;;;;;1.50;0.30;;;;;;;13.46;89.82;100148.31;4992299;28;20029;-53
2023/01/05 05:07:22;;;;;;;0.30;0.30;;;;;;;13.41;89.95;100142.84;5009916;28;20057;-53
2023/01/05 05:09:48;;;;;;;0.32;0.22;;;;;;;13.37;90.52;100143.56;5010916;28;20391;-53
2023/01/05 05:12:14;;;;;;;1.85;0.40;;;;;;;13.28;91.49;100161.97;4997768;28;20099;-54
2023/01/05 05:14:41;;;;;;;0.75;0.30;;;;;;;13.31;91.62;100169.53;4996100;28;20137;-54
2023/01/05 05:17:07;;;;;;;2.13;0.63;;;;;;;13.28;92.62;100178.09;5000309;28;20478;-56
2023/01/05 05:19:33;;;;;;;1.23;0.50;;;;;;;13.30;93.22;100167.91;5007393;28;20030;-56
2023/01/05 05:22:00;;;;;;;1.48;0.50;;;;;;;13.17;93.93;100179.72;4996361;28;20066;-57
2023/01/05 05:24:26;;;;;;;2.25;0.60;;;;;;;13.18;94.01;100184.03;5010876;28;20029;-56
2023/01/05 05:26:52;;;;;;;2.35;0.70;;;;;;;13.16;94.66;100196.91;5015850;28;20442;-57
2023/01/05 05:29:18;;;;;;;5.80;0.93;;;;;;;13.14;95.35;100172.13;5015255;28;20030;-57
2023/01/05 05:31:45;;;;;;;1.13;0.60;;;;;;;13.11;94.67;100177.19;5015933;28;20042;-57
2023/01/05 05:34:11;;;;;;;2.00;0.90;;;;;;;13.00;95.64;100173.47;5015426;28;20033;-57
2023/01/05 05:36:37;;;;;;;4.65;0.90;;;;;;;13.06;94.71;100172.53;5015723;28;20018;-55
2023/01/05 05:39:04;;;;;;;3.13;0.90;;;;;;;13.02;94.19;100165.16;5015289;28;20030;-56
2023/01/05 05:41:30;;;;;;;3.10;0.80;;;;;;;13.01;94.91;100160.84;5015735;28;20037;-56
2023/01/05 05:43:59;;;;;;;3.60;0.93;;;;;;;13.02;93.24;100167.84;5015530;28;20517;-54
2023/01/05 05:46:27;;;;;;;1.17;0.60;;;;;;;13.05;92.40;100162.03;5015501;28;20026;-54
2023/01/05 05:48:54;;;;;;;6.38;1.00;;;;;;;13.00;93.15;100157.34;5015110;28;20161;-55
2023/01/05 05:51:21;;;;;;;2.42;0.80;;;;;;;13.11;92.78;100155.69;5015353;28;20022;-54
2023/01/05 05:53:47;;;;;;;4.28;0.88;;;;;;;12.99;94.01;100165.63;5015341;28;20033;-55
2023/01/05 05:56:13;;;;;;;4.43;1.05;;;;;;;13.00;93.71;100164.59;5015065;28;20026;-54
2023/01/05 05:58:40;;;;;;;5.65;1.77;;;;;;;12.96;93.56;100164.25;5015062;28;20081;-55
2023/01/05 06:01:06;;;;;;;6.05;1.33;;;;;;;12.81;94.00;100172.00;5015086;28;20121;-55
2023/01/05 06:03:32;;;;;;;6.13;1.60;;;;;;;12.94;94.18;100177.94;5030852;22;20115;-54
2023/01/05 06:06:00;;;;;;;6.38;1.40;;;;;;;12.93;94.15;100160.16;5042476;28;20378;-54
2023/01/05 06:08:28;;;;;;;2.53;0.82;;;;;;;12.85;93.86;100182.03;5034234;28;20035;-54
2023/01/05 06:10:55;;;;;;;3.58;1.25;;;;;;;12.86;94.53;100180.16;5034625;28;20040;-54
2023/01/05 06:13:22;;;;;;;2.80;0.70;;;;;;;12.92;95.00;100184.56;5051480;28;20140;-54
2023/01/05 06:15:49;;;;;;;3.65;0.93;;;;;;;12.82;96.13;100185.16;5054578;28;20079;-54
2023/01/05 06:18:16;;;;;;;3.03;1.00;;;;;;;12.86;95.68;100191.72;5054373;28;20021;-54
2023/01/05 06:20:42;;;;;;;3.17;1.00;;;;;;;12.82;94.80;100228.13;5049944;28;20017;-54
2023/01/05 06:23:09;;;;;;;8.07;1.45;;;;;;;12.88;91.14;100223.69;5052194;28;20029;-55
2023/01/05 06:25:35;;;;;;;9.10;1.80;;;;;;;12.82;90.56;100252.31;5044053;28;20474;-53
2023/01/05 06:28:02;;;;;;;13.18;1.80;;;;;;;12.82;88.00;100275.66;5019602;28;20335;-55
2023/01/05 06:30:29;;;;;;;10.70;2.17;;;;;;;12.65;85.50;100265.63;5015919;28;20482;-56
2023/01/05 06:32:55;;;;;;;18.63;3.13;;;;;;;12.42;87.83;100266.44;5034593;28;20036;-55
2023/01/05 06:35:21;;;;;;;19.92;3.40;;;;;;;12.20;88.41;100260.00;5034204;28;20026;-55
2023/01/05 06:37:47;;;;;;;19.40;3.47;;;;;;;12.03;89.24;100265.22;5034141;28;20034;-56
2023/01/05 06:40:14;;;;;;;11.13;2.45;;;;;;;11.97;89.13;100279.53;5034134;28;20466;-56
2023/01/05 06:42:42;;;;;;;13.38;2.80;;;;;;;12.06;88.73;100269.31;5034326;28;20442;-56
2023/01/05 06:45:13;;;;;;;12.73;2.47;;;;;;;11.92;89.70;100282.09;5033992;28;20056;-56
2023/01/05 06:47:39;;;;;;;10.90;1.90;;;;;;;11.94;89.49;100284.53;5033929;28;20025;-56
2023/01/05 06:50:06;;;;;;;9.07;2.22;;;;;;;11.93;89.54;100293.63;5034244;28;20037;-55
2023/01/05 06:52:38;;;;;;;10.88;2.45;;;;;;;11.92;89.96;100292.00;5034049;28;20478;-56
2023/01/05 06:55:09;;;;;;;9.07;1.63;;;;;;;11.88;90.70;100292.47;5034183;28;20104;-56
2023/01/05 06:57:35;;;;;;;7.50;1.95;;;;;;;11.89;90.72;100295.97;5033674;28;20108;-55
2023/01/05 07:00:07;;;;;;;13.07;2.05;;;;;;;12.00;90.28;100300.56;5034185;28;20438;-56
2023/01/05 07:02:33;;;;;;;8.13;1.75;;;;;;;11.88;90.66;100311.25;5033983;28;20440;-57
2023/01/05 07:05:00;;;;;;;8.38;2.28;;;;;;;11.93;90.72;100299.00;5044267;28;20043;-55
2023/01/05 07:07:26;;;;;;;8.35;1.92;;;;;;;11.81;91.00;100288.19;5053672;28;20032;-55
2023/01/05 07:09:52;;;;;;;9.00;1.83;;;;;;;11.71;92.51;100286.03;5053417;28;20032;-55
2023/01/05 07:12:19;;;;;;;8.80;1.83;;;;;;;11.73;92.01;100272.44;5053477;28;20462;-56
2023/01/05 07:14:45;;;;;;;11.95;2.75;;;;;;;11.60;92.31;100268.06;5053574;28;20082;-55
2023/01/05 07:17:12;;;;;;;13.55;3.13;;;;;;;11.63;92.37;100271.09;5053379;28;20100;-56
2023/01/05 07:19:38;;;;;;;7.25;1.90;;;;;;;11.68;92.38;100266.94;5048045;28;20164;-56
2023/01/05 07:22:05;;;;;;;8.65;2.42;;;;;;;11.68;92.28;100266.94;5033336;28;20025;-56
2023/01/05 07:24:31;;;;;;;9.48;2.08;;;;;;;11.62;93.23;100265.97;5033365;28;20083;-56
2023/01/05 07:26:58;;;;;;;7.43;1.65;;;;;;;11.75;92.53;100270.34;5034171;28;20098;-56
2023/01/05 07:29:25;;;;;;;8.07;1.70;;;;;;;11.79;92.96;100268.84;5052496;28;20079;-57
2023/01/05 07:31:51;;;;;;;6.03;1.17;;;;;;;11.83;93.71;100273.56;5051286;28;20021;-55
2023/01/05 07:34:18;;;;;;;6.93;1.83;;;;;;;11.89;94.23;100259.22;5042542;28;20029;-56
2023/01/05 07:36:44;;;;;;;9.02;1.75;;;;;;;12.04;94.93;100268.72;5044845;28;20021;-55
2023/01/05 07:39:11;;;;;;;10.57;2.35;;;;;;;12.10;95.90;100267.78;5033171;28;20024;-54
2023/01/05 07:41:37;;;;;;;15.48;2.53;;;;;;;12.16;96.16;100261.53;5032788;28;20060;-54
2023/01/05 07:44:03;;;;;;;10.68;2.80;;;;;;;12.15;96.52;100270.59;5033016;28;20485;-55
2023/01/05 07:46:31;;;;;;;15.00;3.00;;;;;;;12.03;96.31;100275.13;5032891;28;20068;-56
2023/01/05 07:48:58;;;;;;;5.25;1.30;;;;;;;11.94;95.19;100273.81;5032547;28;20033;-55
2023/01/05 07:51:24;;;;;;;5.68;1.30;;;;;;;11.83;94.57;100275.44;5033059;28;20064;-56
2023/01/05 07:53:50;;;;;;;6.57;1.50;;;;;;;11.84;94.35;100288.59;5032828;28;20013;-55
2023/01/05 07:56:16;;;;;;;10.25;1.70;;;;;;;11.69;93.73;100285.47;5033041;28;20385;-55
2023/01/05 07:58:43;;;;;;;3.38;1.40;;;;;;;11.67;93.86;100282.22;5032389;28;20539;-54
2023/01/05 08:01:11;;;;;;;3.35;1.13;;;;;;;11.64;94.58;100285.31;5005052;22;20055;-54
2023/01/05 08:03:38;;;;;;;4.85;1.20;;;;;;;11.53;94.36;100296.81;4993704;28;20435;-54
2023/01/05 08:06:09;;;;;;;5.78;1.42;;;;;;;11.46;94.99;100285.38;4993324;28;20023;-53
2023/01/05 08:08:36;;;;;;;4.60;1.20;;;;;;;11.49;94.77;100290.25;4992879;28;20037;-54
2023/01/05 08:11:10;;;;;;;6.75;1.25;;;;;;;11.59;94.57;100294.03;4993406;28;20061;-54
2023/01/05 08:16:22;;;;;;;6.72;1.20;;;;;;;11.62;94.19;100300.81;4993156;28;20146;-54
2023/01/05 08:18:48;;;;;;;5.60;1.33;;;;;;;11.56;94.87;100305.22;4993011;28;20410;-53
2023/01/05 08:21:14;;;;;;;6.80;2.20;;;;;;;11.54;95.49;100306.47;4993076;28;20053;-53
2023/01/05 08:23:40;;;;;;;8.88;2.15;;;;;;;11.63;95.60;100324.72;4992872;28;20030;-52
2023/01/05 08:26:13;;;;;;;7.47;1.52;;;;;;;11.75;95.65;100319.41;4993016;28;20109;-54
2023/01/05 08:28:39;;;;;;;10.50;1.80;;;;;;;11.74;96.39;100307.06;4992372;28;20033;-53
2023/01/05 08:31:09;;;;;;;9.10;1.73;;;;;;;11.82;96.57;100309.44;4992806;28;20022;-53
2023/01/05 08:33:36;;;;;;;9.13;2.05;;;;;;;11.86;96.25;100318.69;4992363;28;20026;-54
2023/01/05 08:36:08;;;;;;;5.20;1.55;;;;;;;11.94;95.71;100308.66;4993073;28;20270;-53
2023/01/05 08:38:34;;;;;;;13.90;2.03;;;;;;;11.92;94.30;100322.31;4991765;28;20061;-53
2023/01/05 08:41:00;;;;;;;10.35;2.17;;;;;;;11.91;91.36;100315.31;4992141;28;20053;-54
2023/01/05 08:43:26;;;;;;;16.98;2.80;;;;;;;11.75;90.54;100303.31;4992439;28;20038;-54
2023/01/05 08:45:53;;;;;;;14.63;2.47;;;;;;;11.80;90.16;100310.69;4992091;28;20030;-52
2023/01/05 08:48:19;;;;;;;23.20;2.78;;;;;;;11.95;90.01;100326.41;4991240;28;20030;-52
2023/01/05 08:50:45;;;;;;;11.57;2.50;;;;;;;12.14;90.03;100317.25;4992203;28;20033;-53
2023/01/05 08:53:11;;;;;;;12.18;2.67;;;;;;;12.19;90.65;100314.72;4991957;28;20072;-53
2023/01/05 08:55:38;;;;;;;11.82;2.90;;;;;;;12.24;91.04;100308.66;4992620;28;20093;-49
2023/01/05 08:58:07;;;;;;;14.50;3.13;;;;;;;12.42;90.12;100306.69;4974976;28;20025;-51
2023/01/05 09:00:34;;;;;;;14.75;3.47;;;;;;;12.38;90.69;100308.22;4991682;28;20043;-53
2023/01/05 09:03:01;;;;;;;19.95;4.18;;;;;;;12.44;90.35;100303.81;4991626;28;20030;-50
2023/01/05 09:05:27;;;;;;;18.42;4.57;;;;;;;12.53;90.53;100315.81;4992037;28;20451;-53
2023/01/05 09:07:53;;;;;;;28.25;4.57;;;;;;;12.61;90.39;100317.38;4991260;28;20058;-52
2023/01/05 09:10:19;;;;;;;25.27;5.70;;;;;;;12.67;90.28;100313.75;4992126;28;20038;-52
2023/01/05 09:12:46;;;;;;;27.02;6.00;;;;;;;12.78;89.27;100323.69;4991989;28;20034;-50
2023/01/05 09:15:12;;;;;;;26.98;5.28;;;;;;;12.79;89.44;100322.63;4991869;28;20471;-50
2023/01/05 09:17:38;;;;;;;25.25;5.07;;;;;;;12.77;89.17;100311.31;4991693;28;20468;-51
2023/01/05 09:20:06;;;;;;;31.00;5.75;;;;;;;12.85;88.51;100318.19;4991486;28;20070;-51
2023/01/05 09:22:34;;;;;;;30.23;6.05;;;;;;;12.87;88.17;100319.56;4991805;28;20057;-49
2023/01/05 09:25:02;;;;;;;30.02;5.78;;;;;;;12.94;88.08;100320.28;4991590;28;20380;-50
2023/01/05 09:27:28;;;;;;;26.00;5.45;;;;;;;13.00;88.33;100320.41;4991539;28;20430;-53
2023/01/05 09:29:54;;;;;;;22.13;5.72;;;;;;;12.97;88.04;100318.19;4991565;28;20030;-50
2023/01/05 09:32:22;;;;;;;29.85;6.18;;;;;;;13.00;87.93;100325.78;4991867;28;20034;-49
2023/01/05 09:34:48;;;;;;;18.55;5.03;;;;;;;13.03;87.97;100333.38;4991018;28;20018;-52
2023/01/05 09:37:14;;;;;;;24.00;6.00;;;;;;;13.03;88.11;100318.06;4990922;28;20113;-53
2023/01/05 09:39:40;;;;;;;36.15;6.00;;;;;;;13.10;87.78;100326.84;4991481;28;20030;-49
2023/01/05 09:42:13;;;;;;;19.48;6.10;;;;;;;13.07;87.21;100318.41;4991441;28;20038;-52
2023/01/05 09:44:45;;;;;;;34.30;6.88;;;;;;;13.08;86.91;100320.03;4991671;28;20053;-52
2023/01/05 09:47:38;;;;;;;24.73;6.13;;;;;;;13.12;86.56;100313.16;4990828;28;20028;-52
2023/01/05 09:50:08;;;;;;;21.63;5.22;;;;;;;13.07;85.89;100316.53;4972739;28;20186;-50
2023/01/05 09:52:35;;;;;;;28.02;6.38;;;;;;;12.93;86.76;100318.63;4979466;28;20023;-51
2023/01/05 09:55:20;;;;;;;31.35;6.18;;;;;;;12.85;87.04;100321.69;4992334;28;20026;-52
2023/01/05 09:58:13;;;;;;;29.02;6.15;;;;;;;12.82;87.29;100318.63;4991764;28;20026;-50
2023/01/05 10:00:49;;;;;;;23.48;5.65;;;;;;;12.92;86.49;100321.56;4977940;28;20438;-52
2023/01/05 10:03:20;;;;;;;27.60;4.85;;;;;;;12.94;85.89;100331.03;4995273;28;20032;-51
2023/01/05 10:05:47;;;;;;;27.38;6.13;;;;;;;12.91;86.13;100328.00;4995703;28;20053;-52
2023/01/05 10:08:34;;;;;;;34.78;6.80;;;;;;;12.89;85.88;100341.66;4995001;28;20571;-50
2023/01/05 10:14:11;;;;;;;38.28;6.90;;;;;;;12.81;86.64;100351.94;4995313;28;20037;-52
2023/01/05 10:16:42;;;;;;;27.15;5.88;;;;;;;12.69;86.93;100355.41;4995494;28;20037;-52
2023/01/05 10:19:17;;;;;;;23.92;6.47;;;;;;;12.71;86.66;100365.09;4995777;28;20029;-49
2023/01/05 10:22:16;;;;;;;32.70;6.45;;;;;;;12.70;86.73;100369.66;4994862;28;20034;-48
2023/01/05 10:24:57;;;;;;;27.35;5.85;;;;;;;12.66;87.56;100376.56;4975707;28;20092;-52
2023/01/05 10:27:36;;;;;;;34.60;6.38;;;;;;;12.80;86.80;100379.84;4975366;28;20034;-49
2023/01/05 10:30:34;;;;;;;30.00;6.65;;;;;;;12.78;87.22;100396.19;4975512;28;20121;-48
2023/01/05 10:33:21;;;;;;;33.88;6.97;;;;;;;12.81;87.07;100395.72;4960051;28;20022;-51
2023/01/05 10:35:53;;;;;;;35.03;6.55;;;;;;;12.80;87.07;100402.13;4975137;28;20081;-50
2023/01/05 10:38:48;;;;;;;29.88;7.20;;;;;;;12.81;86.93;100398.41;4974956;28;20034;-52
2023/01/05 10:41:39;;;;;;;26.05;6.00;;;;;;;12.88;86.16;100387.53;4982300;28;20036;-49
2023/01/05 10:44:30;;;;;;;37.95;6.97;;;;;;;12.77;86.83;100396.41;4994778;28;20443;-53
2023/01/05 10:46:56;;;;;;;38.95;6.88;;;;;;;12.74;86.85;100396.88;4994493;28;20026;-50
2023/01/05 10:49:27;;;;;;;30.55;6.15;;;;;;;12.72;87.14;100391.75;4994299;28;20173;-52
2023/01/05 10:51:55;;;;;;;30.02;6.20;;;;;;;12.82;86.73;100389.28;4994700;28;20561;-51
2023/01/05 10:54:47;;;;;;;32.03;6.80;;;;;;;12.78;86.34;100393.50;4994406;28;20057;-51
2023/01/05 10:57:29;;;;;;;26.08;6.10;;;;;;;12.73;86.50;100398.75;4983709;28;20038;-52
2023/01/05 11:00:01;;;;;;;28.00;7.05;;;;;;;12.88;86.02;100377.66;4994058;28;20041;-52
2023/01/05 11:02:30;;;;;;;25.60;5.82;;;;;;;12.88;85.85;100377.66;4994807;28;20027;-51
2023/01/05 11:05:09;;;;;;;33.28;5.68;;;;;;;12.82;85.90;100383.91;4994107;28;20467;-52
2023/01/05 11:07:53;;;;;;;30.70;6.38;;;;;;;12.90;86.26;100380.91;4994092;28;20042;-50
2023/01/05 11:11:08;;;;;;;24.27;6.00;;;;;;;12.95;86.04;100389.09;4993324;28;20470;-52
2023/01/05 11:13:39;;;;;;;24.30;5.70;;;;;;;12.89;85.62;100392.69;4971356;28;20113;-50
2023/01/05 11:16:21;;;;;;;24.33;5.65;;;;;;;12.91;85.99;100398.66;4974714;28;20023;-49
2023/01/05 11:19:14;;;;;;;31.40;6.18;;;;;;;12.87;86.34;100402.03;4974501;28;20026;-49
2023/01/05 11:21:45;;;;;;;33.10;6.40;;;;;;;12.89;85.70;100416.88;4974726;28;20114;-48
2023/01/05 11:24:23;;;;;;;28.10;5.20;;;;;;;12.89;86.01;100424.94;4974561;28;20034;-49
2023/01/05 11:27:19;;;;;;;26.20;6.10;;;;;;;13.00;85.90;100427.88;4974423;28;20026;-49
2023/01/05 11:30:05;;;;;;;;;;;;;;;12.97;85.96;100422.94;4974527;28;20034;-50
2023/01/05 11:32:32;;;;;;;30.15;6.43;;;;;;;13.03;85.11;100433.59;4974494;28;19914;-49
2023/01/05 11:34:59;;;;;;;29.67;5.30;;;;;;;13.02;85.27;100431.94;4984233;28;20061;-52
2023/01/05 11:37:28;;;;;;;26.80;5.18;;;;;;;13.01;85.11;100429.50;4993649;28;20030;-48
2023/01/05 11:39:56;;;;;;;23.30;5.97;;;;;;;13.03;85.21;100425.53;4993546;28;20030;-51
2023/01/05 11:42:22;;;;;;;27.17;6.18;;;;;;;13.03;84.77;100424.72;4993702;28;20033;-51
2023/01/05 11:44:56;;;;;;;22.80;5.10;;;;;;;13.07;84.20;100425.88;4993891;28;20549;-50
2023/01/05 11:47:43;;;;;;;24.20;5.85;;;;;;;13.13;84.07;100416.91;4993683;28;20042;-49
2023/01/05 11:50:11;;;;;;;21.20;5.88;;;;;;;13.12;83.68;100417.94;4993403;28;20038;-49
2023/01/05 11:52:43;;;;;;;38.30;6.03;;;;;;;13.11;83.26;100413.63;4993555;28;20101;-51
2023/01/05 11:55:29;;;;;;;24.30;6.57;;;;;;;13.16;83.48;100413.75;4993382;28;20026;-52
2023/01/05 11:58:24;;;;;;;25.13;5.07;;;;;;;13.18;82.87;100408.97;4992288;28;20110;-52
2023/01/05 12:01:44;;;;;;;25.05;5.82;;;;;;;13.20;82.05;100407.66;4993104;28;20050;-51
2023/01/05 12:04:49;;;;;;;28.58;5.45;;;;;;;13.11;82.08;100390.25;4982086;28;20140;-48
2023/01/05 12:07:20;;;;;;;20.35;4.72;;;;;;;13.14;80.92;100386.28;4952505;28;20128;-49
2023/01/05 12:10:11;;;;;;;24.83;5.47;;;;;;;13.24;80.12;100404.53;4992489;28;20100;-50
2023/01/05 12:12:37;;;;;;;24.77;5.03;;;;;;;13.21;80.05;100405.81;4993471;28;20360;-49
2023/01/05 12:15:29;;;;;;;27.70;5.20;;;;;;;13.25;79.57;100398.13;4992576;28;20027;-49
2023/01/05 12:18:28;;;;;;;24.25;5.63;;;;;;;13.29;78.69;100399.28;4992640;28;20042;-49